sensor_id;sensor_type;location;lat;lon;timestamp;temperature;humidity
26035;DHT22;13809;48.632;11.576;2022-12-16T00:02:15;3.60;43.50
26035;DHT22;13809;48.632;11.576;2022-12-16T00:07:20;3.60;43.50
26035;DHT22;13809;48.632;11.576;2022-12-16T00:12:23;3.70;43.80
26035;DHT22;13809;48.632;11.576;2022-12-16T00:17:26;3.60;43.60
26035;DHT22;13809;48.632;11.576;2022-12-16T00:22:31;3.60;43.60
26035;DHT22;13809;48.632;11.576;2022-12-16T00:27:34;3.60;43.70
26035;DHT22;13809;48.632;11.576;2022-12-16T00:32:37;3.60;43.70
26035;DHT22;13809;48.632;11.576;2022-12-16T00:37:42;3.50;43.70
26035;DHT22;13809;48.632;11.576;2022-12-16T00:42:45;3.50;43.80
26035;DHT22;13809;48.632;11.576;2022-12-16T00:47:49;3.40;43.70
26035;DHT22;13809;48.632;11.576;2022-12-16T00:52:54;3.40;43.80
26035;DHT22;13809;48.632;11.576;2022-12-16T00:57:57;3.40;43.80
26035;DHT22;13809;48.632;11.576;2022-12-16T01:03:00;3.40;43.80
26035;DHT22;13809;48.632;11.576;2022-12-16T01:08:05;3.30;43.60
26035;DHT22;13809;48.632;11.576;2022-12-16T01:13:09;3.30;43.80
26035;DHT22;13809;48.632;11.576;2022-12-16T01:18:12;3.30;43.70
26035;DHT22;13809;48.632;11.576;2022-12-16T01:23:16;3.30;43.80
26035;DHT22;13809;48.632;11.576;2022-12-16T01:28:19;3.30;44.00
26035;DHT22;13809;48.632;11.576;2022-12-16T01:33:23;3.20;43.80
26035;DHT22;13809;48.632;11.576;2022-12-16T01:38:27;3.20;43.90
26035;DHT22;13809;48.632;11.576;2022-12-16T01:43:33;3.20;44.00
26035;DHT22;13809;48.632;11.576;2022-12-16T01:48:42;3.20;43.90
26035;DHT22;13809;48.632;11.576;2022-12-16T01:53:50;3.30;44.00
26035;DHT22;13809;48.632;11.576;2022-12-16T01:58:56;3.20;43.90
26035;DHT22;13809;48.632;11.576;2022-12-16T02:04:02;3.20;43.80
26035;DHT22;13809;48.632;11.576;2022-12-16T02:09:09;3.20;43.90
26035;DHT22;13809;48.632;11.576;2022-12-16T02:14:28;3.20;43.90
26035;DHT22;13809;48.632;11.576;2022-12-16T02:20:10;3.20;44.20
26035;DHT22;13809;48.632;11.576;2022-12-16T02:25:46;3.20;44.30
26035;DHT22;13809;48.632;11.576;2022-12-16T02:31:06;3.30;44.30
26035;DHT22;13809;48.632;11.576;2022-12-16T02:36:14;3.30;44.10
26035;DHT22;13809;48.632;11.576;2022-12-16T02:41:24;3.30;43.80
26035;DHT22;13809;48.632;11.576;2022-12-16T02:46:32;3.30;43.80
26035;DHT22;13809;48.632;11.576;2022-12-16T02:51:37;3.30;43.80
26035;DHT22;13809;48.632;11.576;2022-12-16T02:56:48;3.30;43.70
26035;DHT22;13809;48.632;11.576;2022-12-16T03:02:03;3.30;43.90
26035;DHT22;13809;48.632;11.576;2022-12-16T03:07:11;3.30;43.90
26035;DHT22;13809;48.632;11.576;2022-12-16T03:12:17;3.30;43.80
26035;DHT22;13809;48.632;11.576;2022-12-16T03:17:24;3.40;43.90
26035;DHT22;13809;48.632;11.576;2022-12-16T03:22:32;3.30;43.90
26035;DHT22;13809;48.632;11.576;2022-12-16T03:27:45;3.30;43.90
26035;DHT22;13809;48.632;11.576;2022-12-16T03:32:58;3.30;44.00
26035;DHT22;13809;48.632;11.576;2022-12-16T03:38:05;3.30;44.00
26035;DHT22;13809;48.632;11.576;2022-12-16T03:43:11;3.30;43.80
26035;DHT22;13809;48.632;11.576;2022-12-16T03:48:22;3.30;43.90
26035;DHT22;13809;48.632;11.576;2022-12-16T03:53:25;3.30;44.10
26035;DHT22;13809;48.632;11.576;2022-12-16T03:58:29;3.30;43.90
26035;DHT22;13809;48.632;11.576;2022-12-16T04:03:33;3.30;43.90
26035;DHT22;13809;48.632;11.576;2022-12-16T04:08:37;3.30;44.00
26035;DHT22;13809;48.632;11.576;2022-12-16T04:13:41;3.30;43.80
26035;DHT22;13809;48.632;11.576;2022-12-16T04:19:02;3.40;43.90
26035;DHT22;13809;48.632;11.576;2022-12-16T04:24:32;3.40;43.80
26035;DHT22;13809;48.632;11.576;2022-12-16T04:29:36;3.40;43.80
26035;DHT22;13809;48.632;11.576;2022-12-16T04:35:01;3.40;43.80
26035;DHT22;13809;48.632;11.576;2022-12-16T04:40:18;3.40;43.80
26035;DHT22;13809;48.632;11.576;2022-12-16T04:45:38;3.40;43.80
26035;DHT22;13809;48.632;11.576;2022-12-16T04:51:12;3.40;43.80
26035;DHT22;13809;48.632;11.576;2022-12-16T04:56:32;3.30;43.80
26035;DHT22;13809;48.632;11.576;2022-12-16T05:01:53;3.40;43.80
26035;DHT22;13809;48.632;11.576;2022-12-16T05:07:15;3.30;43.70
26035;DHT22;13809;48.632;11.576;2022-12-16T05:12:39;3.40;43.90
26035;DHT22;13809;48.632;11.576;2022-12-16T05:18:07;3.30;43.70
26035;DHT22;13809;48.632;11.576;2022-12-16T05:23:29;3.30;44.00
26035;DHT22;13809;48.632;11.576;2022-12-16T05:28:49;3.30;43.70
26035;DHT22;13809;48.632;11.576;2022-12-16T05:34:10;3.30;43.70
26035;DHT22;13809;48.632;11.576;2022-12-16T05:39:31;3.20;43.80
26035;DHT22;13809;48.632;11.576;2022-12-16T05:44:52;3.10;43.90
26035;DHT22;13809;48.632;11.576;2022-12-16T05:50:12;3.10;44.00
26035;DHT22;13809;48.632;11.576;2022-12-16T05:55:35;3.00;44.00
26035;DHT22;13809;48.632;11.576;2022-12-16T06:00:56;3.10;44.20
26035;DHT22;13809;48.632;11.576;2022-12-16T06:06:16;3.10;44.10
26035;DHT22;13809;48.632;11.576;2022-12-16T06:11:38;3.00;44.10
26035;DHT22;13809;48.632;11.576;2022-12-16T06:16:59;3.10;44.30
26035;DHT22;13809;48.632;11.576;2022-12-16T06:22:19;3.10;44.20
26035;DHT22;13809;48.632;11.576;2022-12-16T06:27:42;3.10;45.10
26035;DHT22;13809;48.632;11.576;2022-12-16T06:33:02;3.10;44.70
26035;DHT22;13809;48.632;11.576;2022-12-16T06:38:23;3.10;44.40
26035;DHT22;13809;48.632;11.576;2022-12-16T06:43:45;3.20;44.30
26035;DHT22;13809;48.632;11.576;2022-12-16T06:49:05;3.20;44.20
26035;DHT22;13809;48.632;11.576;2022-12-16T06:54:26;3.10;44.10
26035;DHT22;13809;48.632;11.576;2022-12-16T06:59:50;3.10;44.30
26035;DHT22;13809;48.632;11.576;2022-12-16T07:05:10;3.10;44.40
26035;DHT22;13809;48.632;11.576;2022-12-16T07:10:31;3.00;44.20
26035;DHT22;13809;48.632;11.576;2022-12-16T07:15:57;3.10;44.20
26035;DHT22;13809;48.632;11.576;2022-12-16T07:21:17;3.20;44.10
26035;DHT22;13809;48.632;11.576;2022-12-16T07:26:38;3.10;44.00
26035;DHT22;13809;48.632;11.576;2022-12-16T07:32:00;3.20;44.20
26035;DHT22;13809;48.632;11.576;2022-12-16T07:37:20;3.10;44.30
26035;DHT22;13809;48.632;11.576;2022-12-16T07:42:41;3.10;44.30
26035;DHT22;13809;48.632;11.576;2022-12-16T07:48:04;3.00;44.40
26035;DHT22;13809;48.632;11.576;2022-12-16T07:53:33;3.00;44.40
26035;DHT22;13809;48.632;11.576;2022-12-16T07:58:54;3.00;44.30
26035;DHT22;13809;48.632;11.576;2022-12-16T08:04:16;2.90;44.50
26035;DHT22;13809;48.632;11.576;2022-12-16T08:09:36;3.00;44.60
26035;DHT22;13809;48.632;11.576;2022-12-16T08:14:57;3.00;44.50
26035;DHT22;13809;48.632;11.576;2022-12-16T08:20:19;3.00;44.40
26035;DHT22;13809;48.632;11.576;2022-12-16T08:25:39;3.00;44.50
26035;DHT22;13809;48.632;11.576;2022-12-16T08:31:00;2.90;44.50
26035;DHT22;13809;48.632;11.576;2022-12-16T08:36:24;2.90;44.70
26035;DHT22;13809;48.632;11.576;2022-12-16T08:41:45;2.80;44.70
26035;DHT22;13809;48.632;11.576;2022-12-16T08:47:06;2.80;44.70
26035;DHT22;13809;48.632;11.576;2022-12-16T08:52:27;2.80;44.70
26035;DHT22;13809;48.632;11.576;2022-12-16T08:57:52;2.80;44.90
26035;DHT22;13809;48.632;11.576;2022-12-16T09:03:13;3.00;45.20
26035;DHT22;13809;48.632;11.576;2022-12-16T09:08:36;2.80;44.80
26035;DHT22;13809;48.632;11.576;2022-12-16T09:13:56;2.80;44.80
26035;DHT22;13809;48.632;11.576;2022-12-16T09:19:16;2.80;44.60
26035;DHT22;13809;48.632;11.576;2022-12-16T09:24:38;2.90;44.60
26035;DHT22;13809;48.632;11.576;2022-12-16T09:29:59;2.90;44.40
26035;DHT22;13809;48.632;11.576;2022-12-16T09:35:19;3.00;44.30
26035;DHT22;13809;48.632;11.576;2022-12-16T09:40:42;2.90;44.40
26035;DHT22;13809;48.632;11.576;2022-12-16T09:46:10;2.90;44.10
26035;DHT22;13809;48.632;11.576;2022-12-16T09:51:34;2.80;44.20
26035;DHT22;13809;48.632;11.576;2022-12-16T09:57:01;2.80;44.30
26035;DHT22;13809;48.632;11.576;2022-12-16T10:02:23;2.90;44.70
26035;DHT22;13809;48.632;11.576;2022-12-16T10:07:49;2.80;44.60
26035;DHT22;13809;48.632;11.576;2022-12-16T10:13:26;2.80;44.70
26035;DHT22;13809;48.632;11.576;2022-12-16T10:19:00;2.90;44.80
26035;DHT22;13809;48.632;11.576;2022-12-16T10:24:31;3.00;44.60
26035;DHT22;13809;48.632;11.576;2022-12-16T10:29:55;3.00;44.50
26035;DHT22;13809;48.632;11.576;2022-12-16T10:35:20;3.10;44.50
26035;DHT22;13809;48.632;11.576;2022-12-16T10:40:41;3.10;44.50
26035;DHT22;13809;48.632;11.576;2022-12-16T10:46:05;3.10;44.60
26035;DHT22;13809;48.632;11.576;2022-12-16T10:51:30;3.20;44.60
26035;DHT22;13809;48.632;11.576;2022-12-16T10:56:56;3.20;44.50
26035;DHT22;13809;48.632;11.576;2022-12-16T11:02:23;3.30;44.80
26035;DHT22;13809;48.632;11.576;2022-12-16T11:07:51;3.40;44.60
26035;DHT22;13809;48.632;11.576;2022-12-16T11:13:17;3.50;44.40
26035;DHT22;13809;48.632;11.576;2022-12-16T11:18:48;3.50;44.00
26035;DHT22;13809;48.632;11.576;2022-12-16T11:24:13;3.50;43.90
26035;DHT22;13809;48.632;11.576;2022-12-16T11:29:48;3.50;44.00
26035;DHT22;13809;48.632;11.576;2022-12-16T11:35:13;3.50;44.10
26035;DHT22;13809;48.632;11.576;2022-12-16T11:40:35;3.60;44.10
26035;DHT22;13809;48.632;11.576;2022-12-16T11:45:59;3.40;43.90
26035;DHT22;13809;48.632;11.576;2022-12-16T11:51:22;3.50;44.20
26035;DHT22;13809;48.632;11.576;2022-12-16T11:56:44;3.50;44.00
26035;DHT22;13809;48.632;11.576;2022-12-16T12:02:11;3.50;44.10
26035;DHT22;13809;48.632;11.576;2022-12-16T12:07:40;3.50;44.00
26035;DHT22;13809;48.632;11.576;2022-12-16T12:13:07;3.60;44.00
26035;DHT22;13809;48.632;11.576;2022-12-16T12:18:37;3.50;43.70
26035;DHT22;13809;48.632;11.576;2022-12-16T12:24:06;3.50;43.80
26035;DHT22;13809;48.632;11.576;2022-12-16T12:29:35;3.50;44.40
26035;DHT22;13809;48.632;11.576;2022-12-16T12:35:06;3.60;44.30
26035;DHT22;13809;48.632;11.576;2022-12-16T12:40:40;3.60;45.00
26035;DHT22;13809;48.632;11.576;2022-12-16T12:46:09;3.70;44.20
26035;DHT22;13809;48.632;11.576;2022-12-16T12:51:38;3.80;44.00
26035;DHT22;13809;48.632;11.576;2022-12-16T12:57:05;3.80;43.80
26035;DHT22;13809;48.632;11.576;2022-12-16T13:02:38;3.80;43.50
26035;DHT22;13809;48.632;11.576;2022-12-16T13:08:32;3.80;43.70
26035;DHT22;13809;48.632;11.576;2022-12-16T13:13:54;3.80;43.80
26035;DHT22;13809;48.632;11.576;2022-12-16T13:19:44;3.90;43.60
26035;DHT22;13809;48.632;11.576;2022-12-16T13:25:39;3.80;44.30
26035;DHT22;13809;48.632;11.576;2022-12-16T13:31:09;3.80;43.80
26035;DHT22;13809;48.632;11.576;2022-12-16T13:36:33;4.00;43.90
26035;DHT22;13809;48.632;11.576;2022-12-16T13:41:59;3.80;43.80
26035;DHT22;13809;48.632;11.576;2022-12-16T13:47:32;3.70;43.70
26035;DHT22;13809;48.632;11.576;2022-12-16T13:52:55;3.70;43.90
26035;DHT22;13809;48.632;11.576;2022-12-16T13:58:30;3.60;43.70
26035;DHT22;13809;48.632;11.576;2022-12-16T14:03:54;3.50;43.90
26035;DHT22;13809;48.632;11.576;2022-12-16T14:09:32;3.40;43.90
26035;DHT22;13809;48.632;11.576;2022-12-16T14:14:58;3.40;44.50
26035;DHT22;13809;48.632;11.576;2022-12-16T14:20:28;3.40;44.40
26035;DHT22;13809;48.632;11.576;2022-12-16T14:25:55;3.40;44.80
26035;DHT22;13809;48.632;11.576;2022-12-16T14:31:19;3.40;44.60
26035;DHT22;13809;48.632;11.576;2022-12-16T14:36:42;3.50;44.40
26035;DHT22;13809;48.632;11.576;2022-12-16T14:42:12;3.50;45.10
26035;DHT22;13809;48.632;11.576;2022-12-16T14:47:32;3.50;44.60
26035;DHT22;13809;48.632;11.576;2022-12-16T14:53:12;3.50;44.50
26035;DHT22;13809;48.632;11.576;2022-12-16T14:58:34;3.50;44.60
26035;DHT22;13809;48.632;11.576;2022-12-16T15:04:01;3.50;44.20
26035;DHT22;13809;48.632;11.576;2022-12-16T15:09:28;3.50;44.30
26035;DHT22;13809;48.632;11.576;2022-12-16T15:14:51;3.50;44.40
26035;DHT22;13809;48.632;11.576;2022-12-16T15:20:18;3.50;44.20
26035;DHT22;13809;48.632;11.576;2022-12-16T15:25:48;3.40;44.30
26035;DHT22;13809;48.632;11.576;2022-12-16T15:31:13;3.40;44.50
26035;DHT22;13809;48.632;11.576;2022-12-16T15:36:35;3.40;44.40
26035;DHT22;13809;48.632;11.576;2022-12-16T15:41:57;3.40;44.40
26035;DHT22;13809;48.632;11.576;2022-12-16T15:47:20;3.40;44.50
26035;DHT22;13809;48.632;11.576;2022-12-16T15:52:42;3.40;44.60
26035;DHT22;13809;48.632;11.576;2022-12-16T15:58:14;3.40;44.40
26035;DHT22;13809;48.632;11.576;2022-12-16T16:03:37;3.40;44.60
26035;DHT22;13809;48.632;11.576;2022-12-16T16:08:57;3.40;44.40
26035;DHT22;13809;48.632;11.576;2022-12-16T16:14:19;3.50;44.30
26035;DHT22;13809;48.632;11.576;2022-12-16T16:19:40;3.50;44.40
26035;DHT22;13809;48.632;11.576;2022-12-16T16:25:05;3.50;44.40
26035;DHT22;13809;48.632;11.576;2022-12-16T16:30:27;3.50;44.30
26035;DHT22;13809;48.632;11.576;2022-12-16T16:35:48;3.50;44.30
26035;DHT22;13809;48.632;11.576;2022-12-16T16:41:13;3.50;44.30
26035;DHT22;13809;48.632;11.576;2022-12-16T16:46:36;3.50;44.20
26035;DHT22;13809;48.632;11.576;2022-12-16T16:51:57;3.50;44.30
26035;DHT22;13809;48.632;11.576;2022-12-16T16:57:18;3.60;44.20
26035;DHT22;13809;48.632;11.576;2022-12-16T17:02:40;3.50;44.20
26035;DHT22;13809;48.632;11.576;2022-12-16T17:08:01;3.40;44.20
26035;DHT22;13809;48.632;11.576;2022-12-16T17:13:18;3.30;44.30
26035;DHT22;13809;48.632;11.576;2022-12-16T17:18:40;3.30;44.30
26035;DHT22;13809;48.632;11.576;2022-12-16T17:24:01;3.20;44.50
26035;DHT22;13809;48.632;11.576;2022-12-16T17:29:23;3.10;44.50
26035;DHT22;13809;48.632;11.576;2022-12-16T17:34:46;3.00;44.70
26035;DHT22;13809;48.632;11.576;2022-12-16T17:40:08;3.00;44.80
26035;DHT22;13809;48.632;11.576;2022-12-16T17:45:29;2.90;44.70
26035;DHT22;13809;48.632;11.576;2022-12-16T17:50:53;2.80;44.70
26035;DHT22;13809;48.632;11.576;2022-12-16T17:56:14;2.80;44.70
26035;DHT22;13809;48.632;11.576;2022-12-16T18:01:34;2.80;44.50
26035;DHT22;13809;48.632;11.576;2022-12-16T18:06:56;2.80;44.40
26035;DHT22;13809;48.632;11.576;2022-12-16T18:12:17;2.80;44.50
26035;DHT22;13809;48.632;11.576;2022-12-16T18:17:38;2.70;44.40
26035;DHT22;13809;48.632;11.576;2022-12-16T18:23:00;2.80;44.40
26035;DHT22;13809;48.632;11.576;2022-12-16T18:28:21;2.70;44.50
26035;DHT22;13809;48.632;11.576;2022-12-16T18:33:42;2.70;44.40
26035;DHT22;13809;48.632;11.576;2022-12-16T18:39:04;2.70;44.30
26035;DHT22;13809;48.632;11.576;2022-12-16T18:44:24;2.80;44.30
26035;DHT22;13809;48.632;11.576;2022-12-16T18:49:45;2.80;44.30
26035;DHT22;13809;48.632;11.576;2022-12-16T18:55:07;2.70;44.10
26035;DHT22;13809;48.632;11.576;2022-12-16T19:00:28;2.70;44.10
26035;DHT22;13809;48.632;11.576;2022-12-16T19:05:52;2.80;44.10
26035;DHT22;13809;48.632;11.576;2022-12-16T19:11:14;2.80;44.00
26035;DHT22;13809;48.632;11.576;2022-12-16T19:16:34;2.80;43.80
26035;DHT22;13809;48.632;11.576;2022-12-16T19:21:55;2.80;43.80
26035;DHT22;13809;48.632;11.576;2022-12-16T19:27:27;2.80;43.70
26035;DHT22;13809;48.632;11.576;2022-12-16T19:32:48;2.80;43.70
26035;DHT22;13809;48.632;11.576;2022-12-16T19:38:11;2.80;43.60
26035;DHT22;13809;48.632;11.576;2022-12-16T19:43:34;2.70;43.40
26035;DHT22;13809;48.632;11.576;2022-12-16T19:48:59;2.70;43.30
26035;DHT22;13809;48.632;11.576;2022-12-16T19:54:20;2.70;43.60
26035;DHT22;13809;48.632;11.576;2022-12-16T19:59:42;2.70;43.30
26035;DHT22;13809;48.632;11.576;2022-12-16T20:05:03;2.70;43.60
26035;DHT22;13809;48.632;11.576;2022-12-16T20:10:23;2.60;43.80
26035;DHT22;13809;48.632;11.576;2022-12-16T20:15:45;2.70;43.80
26035;DHT22;13809;48.632;11.576;2022-12-16T20:21:06;2.70;43.60
26035;DHT22;13809;48.632;11.576;2022-12-16T20:26:27;2.80;43.50
26035;DHT22;13809;48.632;11.576;2022-12-16T20:31:49;2.80;43.40
26035;DHT22;13809;48.632;11.576;2022-12-16T20:37:10;2.80;43.30
26035;DHT22;13809;48.632;11.576;2022-12-16T20:42:31;2.80;43.10
26035;DHT22;13809;48.632;11.576;2022-12-16T20:47:55;2.80;43.10
26035;DHT22;13809;48.632;11.576;2022-12-16T20:53:16;2.80;43.00
26035;DHT22;13809;48.632;11.576;2022-12-16T20:58:37;2.80;43.30
26035;DHT22;13809;48.632;11.576;2022-12-16T21:03:59;2.90;43.40
26035;DHT22;13809;48.632;11.576;2022-12-16T21:09:20;2.80;43.10
26035;DHT22;13809;48.632;11.576;2022-12-16T21:14:41;2.80;43.70
26035;DHT22;13809;48.632;11.576;2022-12-16T21:20:04;2.80;43.00
26035;DHT22;13809;48.632;11.576;2022-12-16T21:25:24;2.90;42.90
26035;DHT22;13809;48.632;11.576;2022-12-16T21:30:45;2.90;43.00
26035;DHT22;13809;48.632;11.576;2022-12-16T21:36:07;3.00;42.80
26035;DHT22;13809;48.632;11.576;2022-12-16T21:41:28;2.90;42.60
26035;DHT22;13809;48.632;11.576;2022-12-16T21:46:48;2.90;42.80
26035;DHT22;13809;48.632;11.576;2022-12-16T21:52:11;2.80;42.60
26035;DHT22;13809;48.632;11.576;2022-12-16T21:57:32;2.70;42.50
26035;DHT22;13809;48.632;11.576;2022-12-16T22:02:54;2.70;43.40
26035;DHT22;13809;48.632;11.576;2022-12-16T22:08:16;2.70;42.80
26035;DHT22;13809;48.632;11.576;2022-12-16T22:13:37;2.80;42.60
26035;DHT22;13809;48.632;11.576;2022-12-16T22:18:57;2.70;42.70
26035;DHT22;13809;48.632;11.576;2022-12-16T22:24:19;2.70;42.80
26035;DHT22;13809;48.632;11.576;2022-12-16T22:29:40;2.70;42.70
26035;DHT22;13809;48.632;11.576;2022-12-16T22:35:00;2.70;42.90
26035;DHT22;13809;48.632;11.576;2022-12-16T22:40:22;2.70;43.00
26035;DHT22;13809;48.632;11.576;2022-12-16T22:45:43;2.80;43.10
26035;DHT22;13809;48.632;11.576;2022-12-16T22:51:09;2.80;42.90
26035;DHT22;13809;48.632;11.576;2022-12-16T22:56:31;2.80;42.60
26035;DHT22;13809;48.632;11.576;2022-12-16T23:01:57;2.80;42.80
26035;DHT22;13809;48.632;11.576;2022-12-16T23:07:17;2.80;42.80
26035;DHT22;13809;48.632;11.576;2022-12-16T23:12:39;2.90;42.90
26035;DHT22;13809;48.632;11.576;2022-12-16T23:18:02;2.80;42.80
26035;DHT22;13809;48.632;11.576;2022-12-16T23:23:19;2.80;42.50
26035;DHT22;13809;48.632;11.576;2022-12-16T23:28:42;2.80;42.50
26035;DHT22;13809;48.632;11.576;2022-12-16T23:34:02;2.70;42.20
26035;DHT22;13809;48.632;11.576;2022-12-16T23:39:23;2.50;42.30
26035;DHT22;13809;48.632;11.576;2022-12-16T23:44:45;2.50;42.50
26035;DHT22;13809;48.632;11.576;2022-12-16T23:50:06;2.50;42.70
26035;DHT22;13809;48.632;11.576;2022-12-16T23:55:27;2.50;42.90
